sensor_id;sensor_type;location;lat;lon;timestamp;temperature;humidity
24448;DHT22;13348;50.984;5.822;2023-10-31T00:02:00;10.30;99.90
24448;DHT22;13348;50.984;5.822;2023-10-31T00:04:28;10.30;99.90
24448;DHT22;13348;50.984;5.822;2023-10-31T00:06:55;10.30;99.90
24448;DHT22;13348;50.984;5.822;2023-10-31T00:09:22;10.30;99.90
24448;DHT22;13348;50.984;5.822;2023-10-31T00:11:49;10.30;99.90
24448;DHT22;13348;50.984;5.822;2023-10-31T00:14:16;10.30;99.90
24448;DHT22;13348;50.984;5.822;2023-10-31T00:16:43;10.20;99.90
24448;DHT22;13348;50.984;5.822;2023-10-31T00:19:10;10.20;99.90
24448;DHT22;13348;50.984;5.822;2023-10-31T00:21:38;10.20;99.90
24448;DHT22;13348;50.984;5.822;2023-10-31T00:24:05;10.10;99.90
24448;DHT22;13348;50.984;5.822;2023-10-31T00:26:32;10.10;99.90
24448;DHT22;13348;50.984;5.822;2023-10-31T00:28:59;10.10;99.90
24448;DHT22;13348;50.984;5.822;2023-10-31T00:31:26;10.10;99.90
24448;DHT22;13348;50.984;5.822;2023-10-31T00:33:53;10.00;99.90
24448;DHT22;13348;50.984;5.822;2023-10-31T00:36:20;10.00;99.90
24448;DHT22;13348;50.984;5.822;2023-10-31T00:38:49;10.10;99.90
24448;DHT22;13348;50.984;5.822;2023-10-31T00:41:16;10.00;99.90
24448;DHT22;13348;50.984;5.822;2023-10-31T00:43:43;10.00;99.90
24448;DHT22;13348;50.984;5.822;2023-10-31T00:46:10;9.90;99.90
24448;DHT22;13348;50.984;5.822;2023-10-31T00:48:37;9.90;99.90
24448;DHT22;13348;50.984;5.822;2023-10-31T00:51:04;9.90;99.90
24448;DHT22;13348;50.984;5.822;2023-10-31T00:53:31;9.90;99.90
24448;DHT22;13348;50.984;5.822;2023-10-31T00:55:59;9.90;99.90
24448;DHT22;13348;50.984;5.822;2023-10-31T00:58:26;9.80;99.90
24448;DHT22;13348;50.984;5.822;2023-10-31T01:00:53;9.90;99.90
24448;DHT22;13348;50.984;5.822;2023-10-31T01:03:20;9.90;99.90
24448;DHT22;13348;50.984;5.822;2023-10-31T01:05:47;9.90;99.90
24448;DHT22;13348;50.984;5.822;2023-10-31T01:08:14;9.90;99.90
24448;DHT22;13348;50.984;5.822;2023-10-31T01:10:41;10.00;99.90
24448;DHT22;13348;50.984;5.822;2023-10-31T01:13:10;10.00;99.90
24448;DHT22;13348;50.984;5.822;2023-10-31T01:15:36;10.00;99.90
24448;DHT22;13348;50.984;5.822;2023-10-31T01:18:03;10.00;99.90
24448;DHT22;13348;50.984;5.822;2023-10-31T01:20:31;10.00;99.90
24448;DHT22;13348;50.984;5.822;2023-10-31T01:22:58;10.10;99.90
24448;DHT22;13348;50.984;5.822;2023-10-31T01:25:25;10.10;99.90
24448;DHT22;13348;50.984;5.822;2023-10-31T01:27:51;10.10;99.90
24448;DHT22;13348;50.984;5.822;2023-10-31T01:30:20;10.20;99.90
24448;DHT22;13348;50.984;5.822;2023-10-31T01:32:47;10.20;99.90
24448;DHT22;13348;50.984;5.822;2023-10-31T01:35:14;10.20;99.90
24448;DHT22;13348;50.984;5.822;2023-10-31T01:37:41;10.20;99.90
24448;DHT22;13348;50.984;5.822;2023-10-31T01:40:08;10.20;99.90
24448;DHT22;13348;50.984;5.822;2023-10-31T01:42:35;10.20;99.90
24448;DHT22;13348;50.984;5.822;2023-10-31T01:45:02;10.10;99.90
24448;DHT22;13348;50.984;5.822;2023-10-31T01:47:31;10.10;99.90
24448;DHT22;13348;50.984;5.822;2023-10-31T01:49:57;10.10;99.90
24448;DHT22;13348;50.984;5.822;2023-10-31T01:52:25;10.10;99.90
24448;DHT22;13348;50.984;5.822;2023-10-31T01:54:52;10.10;99.90
24448;DHT22;13348;50.984;5.822;2023-10-31T01:57:19;10.10;99.90
24448;DHT22;13348;50.984;5.822;2023-10-31T01:59:47;10.10;99.90
24448;DHT22;13348;50.984;5.822;2023-10-31T02:02:14;10.10;99.90
24448;DHT22;13348;50.984;5.822;2023-10-31T02:04:43;10.10;99.90
24448;DHT22;13348;50.984;5.822;2023-10-31T02:07:10;10.10;99.90
24448;DHT22;13348;50.984;5.822;2023-10-31T02:09:37;10.10;99.90
24448;DHT22;13348;50.984;5.822;2023-10-31T02:12:04;10.10;99.90
24448;DHT22;13348;50.984;5.822;2023-10-31T02:14:31;10.20;99.90
24448;DHT22;13348;50.984;5.822;2023-10-31T02:16:58;10.20;99.90
24448;DHT22;13348;50.984;5.822;2023-10-31T02:19:26;10.20;99.90
24448;DHT22;13348;50.984;5.822;2023-10-31T02:21:54;10.30;99.90
24448;DHT22;13348;50.984;5.822;2023-10-31T02:24:21;10.30;99.90
24448;DHT22;13348;50.984;5.822;2023-10-31T02:26:48;10.40;99.90
24448;DHT22;13348;50.984;5.822;2023-10-31T02:29:15;10.30;99.90
24448;DHT22;13348;50.984;5.822;2023-10-31T02:31:42;10.30;99.90
24448;DHT22;13348;50.984;5.822;2023-10-31T02:34:09;10.30;99.90
24448;DHT22;13348;50.984;5.822;2023-10-31T02:36:36;10.30;99.90
24448;DHT22;13348;50.984;5.822;2023-10-31T02:39:04;10.40;99.90
24448;DHT22;13348;50.984;5.822;2023-10-31T02:41:31;10.30;99.90
24448;DHT22;13348;50.984;5.822;2023-10-31T02:43:58;10.30;99.90
24448;DHT22;13348;50.984;5.822;2023-10-31T02:46:25;10.30;99.90
24448;DHT22;13348;50.984;5.822;2023-10-31T02:48:52;10.30;99.90
24448;DHT22;13348;50.984;5.822;2023-10-31T02:51:18;10.30;99.90
24448;DHT22;13348;50.984;5.822;2023-10-31T02:53:45;10.30;99.90
24448;DHT22;13348;50.984;5.822;2023-10-31T02:56:14;10.30;99.90
24448;DHT22;13348;50.984;5.822;2023-10-31T02:58:40;10.30;99.90
24448;DHT22;13348;50.984;5.822;2023-10-31T03:01:07;10.30;99.90
24448;DHT22;13348;50.984;5.822;2023-10-31T03:03:34;10.30;99.90
24448;DHT22;13348;50.984;5.822;2023-10-31T03:06:01;10.30;99.90
24448;DHT22;13348;50.984;5.822;2023-10-31T03:08:28;10.30;99.90
24448;DHT22;13348;50.984;5.822;2023-10-31T03:10:55;10.30;99.90
24448;DHT22;13348;50.984;5.822;2023-10-31T03:13:23;10.20;99.90
24448;DHT22;13348;50.984;5.822;2023-10-31T03:15:50;10.10;99.90
24448;DHT22;13348;50.984;5.822;2023-10-31T03:18:17;10.10;99.90
24448;DHT22;13348;50.984;5.822;2023-10-31T03:20:44;10.10;99.90
24448;DHT22;13348;50.984;5.822;2023-10-31T03:23:12;10.10;99.90
24448;DHT22;13348;50.984;5.822;2023-10-31T03:25:38;10.10;99.90
24448;DHT22;13348;50.984;5.822;2023-10-31T03:28:07;10.10;99.90
24448;DHT22;13348;50.984;5.822;2023-10-31T03:30:35;10.10;99.90
24448;DHT22;13348;50.984;5.822;2023-10-31T03:33:02;10.10;99.90
24448;DHT22;13348;50.984;5.822;2023-10-31T03:35:29;10.10;99.90
24448;DHT22;13348;50.984;5.822;2023-10-31T03:37:56;10.10;99.90
24448;DHT22;13348;50.984;5.822;2023-10-31T03:40:23;10.10;99.90
24448;DHT22;13348;50.984;5.822;2023-10-31T03:42:50;10.00;99.90
24448;DHT22;13348;50.984;5.822;2023-10-31T03:45:17;10.10;99.90
24448;DHT22;13348;50.984;5.822;2023-10-31T03:47:45;10.00;99.90
24448;DHT22;13348;50.984;5.822;2023-10-31T03:50:12;10.10;99.90
24448;DHT22;13348;50.984;5.822;2023-10-31T03:52:39;10.10;99.90
24448;DHT22;13348;50.984;5.822;2023-10-31T03:55:06;10.10;99.90
24448;DHT22;13348;50.984;5.822;2023-10-31T03:57:35;10.10;99.90
24448;DHT22;13348;50.984;5.822;2023-10-31T04:00:02;10.10;99.90
24448;DHT22;13348;50.984;5.822;2023-10-31T04:02:30;10.10;99.90
24448;DHT22;13348;50.984;5.822;2023-10-31T04:04:58;10.10;99.90
24448;DHT22;13348;50.984;5.822;2023-10-31T04:07:25;10.10;99.90
24448;DHT22;13348;50.984;5.822;2023-10-31T04:09:52;10.20;99.90
24448;DHT22;13348;50.984;5.822;2023-10-31T04:12:19;10.10;99.90
24448;DHT22;13348;50.984;5.822;2023-10-31T04:14:46;10.20;99.90
24448;DHT22;13348;50.984;5.822;2023-10-31T04:17:13;10.20;99.90
24448;DHT22;13348;50.984;5.822;2023-10-31T04:19:40;10.20;99.90
24448;DHT22;13348;50.984;5.822;2023-10-31T04:22:08;10.20;99.90
24448;DHT22;13348;50.984;5.822;2023-10-31T04:24:35;10.20;99.90
24448;DHT22;13348;50.984;5.822;2023-10-31T04:27:02;10.20;99.90
24448;DHT22;13348;50.984;5.822;2023-10-31T04:29:28;10.20;99.90
24448;DHT22;13348;50.984;5.822;2023-10-31T04:31:55;10.20;99.90
24448;DHT22;13348;50.984;5.822;2023-10-31T04:34:22;10.20;99.90
24448;DHT22;13348;50.984;5.822;2023-10-31T04:36:49;10.20;99.90
24448;DHT22;13348;50.984;5.822;2023-10-31T04:39:17;10.20;99.90
24448;DHT22;13348;50.984;5.822;2023-10-31T04:41:44;10.20;99.90
24448;DHT22;13348;50.984;5.822;2023-10-31T04:44:11;10.20;99.90
24448;DHT22;13348;50.984;5.822;2023-10-31T04:46:38;10.20;99.90
24448;DHT22;13348;50.984;5.822;2023-10-31T04:49:04;10.30;99.90
24448;DHT22;13348;50.984;5.822;2023-10-31T04:51:34;10.30;99.90
24448;DHT22;13348;50.984;5.822;2023-10-31T04:54:01;10.30;99.90
24448;DHT22;13348;50.984;5.822;2023-10-31T04:56:30;10.20;99.90
24448;DHT22;13348;50.984;5.822;2023-10-31T04:58:57;10.20;99.90
24448;DHT22;13348;50.984;5.822;2023-10-31T05:01:24;10.30;99.90
24448;DHT22;13348;50.984;5.822;2023-10-31T05:03:51;10.20;99.90
24448;DHT22;13348;50.984;5.822;2023-10-31T05:06:19;10.20;99.90
24448;DHT22;13348;50.984;5.822;2023-10-31T05:08:46;10.20;99.90
24448;DHT22;13348;50.984;5.822;2023-10-31T05:11:13;10.10;99.90
24448;DHT22;13348;50.984;5.822;2023-10-31T05:13:44;10.20;99.90
24448;DHT22;13348;50.984;5.822;2023-10-31T05:16:11;10.10;99.90
24448;DHT22;13348;50.984;5.822;2023-10-31T05:18:38;10.10;99.90
24448;DHT22;13348;50.984;5.822;2023-10-31T05:21:05;10.00;99.90
24448;DHT22;13348;50.984;5.822;2023-10-31T05:23:32;10.00;99.90
24448;DHT22;13348;50.984;5.822;2023-10-31T05:25:59;10.00;99.90
24448;DHT22;13348;50.984;5.822;2023-10-31T05:28:25;10.00;99.90
24448;DHT22;13348;50.984;5.822;2023-10-31T05:30:54;10.00;99.90
24448;DHT22;13348;50.984;5.822;2023-10-31T05:33:21;9.90;99.90
24448;DHT22;13348;50.984;5.822;2023-10-31T05:35:48;9.80;99.90
24448;DHT22;13348;50.984;5.822;2023-10-31T05:38:16;9.70;99.90
24448;DHT22;13348;50.984;5.822;2023-10-31T05:40:43;9.70;99.90
24448;DHT22;13348;50.984;5.822;2023-10-31T05:43:09;9.70;99.90
24448;DHT22;13348;50.984;5.822;2023-10-31T05:45:36;9.70;99.90
24448;DHT22;13348;50.984;5.822;2023-10-31T05:48:05;9.70;99.90
24448;DHT22;13348;50.984;5.822;2023-10-31T05:50:32;9.60;99.90
24448;DHT22;13348;50.984;5.822;2023-10-31T05:52:59;9.60;99.90
24448;DHT22;13348;50.984;5.822;2023-10-31T05:55:26;9.50;99.90
24448;DHT22;13348;50.984;5.822;2023-10-31T05:57:53;9.50;99.90
24448;DHT22;13348;50.984;5.822;2023-10-31T06:00:19;9.50;99.90
24448;DHT22;13348;50.984;5.822;2023-10-31T06:02:46;9.50;99.90
24448;DHT22;13348;50.984;5.822;2023-10-31T06:05:15;9.50;99.90
24448;DHT22;13348;50.984;5.822;2023-10-31T06:07:42;9.50;99.90
24448;DHT22;13348;50.984;5.822;2023-10-31T06:10:09;9.50;99.90
24448;DHT22;13348;50.984;5.822;2023-10-31T06:12:36;9.50;99.90
24448;DHT22;13348;50.984;5.822;2023-10-31T06:15:03;9.50;99.90
24448;DHT22;13348;50.984;5.822;2023-10-31T06:17:30;9.60;99.90
24448;DHT22;13348;50.984;5.822;2023-10-31T06:19:59;9.70;99.90
24448;DHT22;13348;50.984;5.822;2023-10-31T06:22:28;9.70;99.90
24448;DHT22;13348;50.984;5.822;2023-10-31T06:24:54;9.70;99.90
24448;DHT22;13348;50.984;5.822;2023-10-31T06:27:23;9.70;99.90
24448;DHT22;13348;50.984;5.822;2023-10-31T06:29:50;9.70;99.90
24448;DHT22;13348;50.984;5.822;2023-10-31T06:32:18;9.70;99.90
24448;DHT22;13348;50.984;5.822;2023-10-31T06:34:45;9.70;99.90
24448;DHT22;13348;50.984;5.822;2023-10-31T06:37:12;9.70;99.90
24448;DHT22;13348;50.984;5.822;2023-10-31T06:39:40;9.70;99.90
24448;DHT22;13348;50.984;5.822;2023-10-31T06:42:10;9.70;99.90
24448;DHT22;13348;50.984;5.822;2023-10-31T06:44:37;9.70;99.90
24448;DHT22;13348;50.984;5.822;2023-10-31T06:47:04;9.80;99.90
24448;DHT22;13348;50.984;5.822;2023-10-31T06:49:31;9.70;99.90
24448;DHT22;13348;50.984;5.822;2023-10-31T06:51:58;9.80;99.90
24448;DHT22;13348;50.984;5.822;2023-10-31T06:54:25;9.80;99.90
24448;DHT22;13348;50.984;5.822;2023-10-31T06:56:54;9.70;99.90
24448;DHT22;13348;50.984;5.822;2023-10-31T06:59:21;9.70;99.90
24448;DHT22;13348;50.984;5.822;2023-10-31T07:01:47;9.80;99.90
24448;DHT22;13348;50.984;5.822;2023-10-31T07:04:14;9.80;99.90
24448;DHT22;13348;50.984;5.822;2023-10-31T07:06:42;9.80;99.90
24448;DHT22;13348;50.984;5.822;2023-10-31T07:09:09;9.70;99.90
24448;DHT22;13348;50.984;5.822;2023-10-31T07:11:35;9.70;99.90
24448;DHT22;13348;50.984;5.822;2023-10-31T07:14:04;9.70;99.90
24448;DHT22;13348;50.984;5.822;2023-10-31T07:16:31;9.70;99.90
24448;DHT22;13348;50.984;5.822;2023-10-31T07:18:58;9.70;99.90
24448;DHT22;13348;50.984;5.822;2023-10-31T07:21:25;9.60;99.90
24448;DHT22;13348;50.984;5.822;2023-10-31T07:23:52;9.60;99.90
24448;DHT22;13348;50.984;5.822;2023-10-31T07:26:21;9.60;99.90
24448;DHT22;13348;50.984;5.822;2023-10-31T07:28:48;9.60;99.90
24448;DHT22;13348;50.984;5.822;2023-10-31T07:31:16;9.60;99.90
24448;DHT22;13348;50.984;5.822;2023-10-31T07:33:43;9.50;99.90
24448;DHT22;13348;50.984;5.822;2023-10-31T07:36:10;9.50;99.90
24448;DHT22;13348;50.984;5.822;2023-10-31T07:38:37;9.50;99.90
24448;DHT22;13348;50.984;5.822;2023-10-31T07:41:04;9.50;99.90
24448;DHT22;13348;50.984;5.822;2023-10-31T07:43:31;9.50;99.90
24448;DHT22;13348;50.984;5.822;2023-10-31T07:45:58;9.50;99.90
24448;DHT22;13348;50.984;5.822;2023-10-31T07:48:26;9.60;99.90
24448;DHT22;13348;50.984;5.822;2023-10-31T07:50:53;9.60;99.90
24448;DHT22;13348;50.984;5.822;2023-10-31T07:53:20;9.70;99.90
24448;DHT22;13348;50.984;5.822;2023-10-31T07:55:47;9.70;99.90
24448;DHT22;13348;50.984;5.822;2023-10-31T07:58:14;9.70;99.90
24448;DHT22;13348;50.984;5.822;2023-10-31T08:00:40;9.80;99.90
24448;DHT22;13348;50.984;5.822;2023-10-31T08:03:07;9.90;99.90
24448;DHT22;13348;50.984;5.822;2023-10-31T08:05:36;9.90;99.90
24448;DHT22;13348;50.984;5.822;2023-10-31T08:08:03;9.90;99.90
24448;DHT22;13348;50.984;5.822;2023-10-31T08:10:30;10.00;99.90
24448;DHT22;13348;50.984;5.822;2023-10-31T08:12:57;10.00;99.90
24448;DHT22;13348;50.984;5.822;2023-10-31T08:15:23;9.90;99.90
24448;DHT22;13348;50.984;5.822;2023-10-31T08:17:50;10.00;99.90
24448;DHT22;13348;50.984;5.822;2023-10-31T08:20:17;10.10;99.90
24448;DHT22;13348;50.984;5.822;2023-10-31T08:22:45;10.10;99.90
24448;DHT22;13348;50.984;5.822;2023-10-31T08:25:12;10.10;99.90
24448;DHT22;13348;50.984;5.822;2023-10-31T08:27:39;10.20;99.90
24448;DHT22;13348;50.984;5.822;2023-10-31T08:30:07;10.40;99.90
24448;DHT22;13348;50.984;5.822;2023-10-31T08:32:34;10.40;99.90
24448;DHT22;13348;50.984;5.822;2023-10-31T08:35:00;10.50;99.90
24448;DHT22;13348;50.984;5.822;2023-10-31T08:37:28;10.60;99.90
24448;DHT22;13348;50.984;5.822;2023-10-31T08:39:56;10.60;99.90
24448;DHT22;13348;50.984;5.822;2023-10-31T08:42:23;10.70;99.90
24448;DHT22;13348;50.984;5.822;2023-10-31T08:44:50;10.80;99.90
24448;DHT22;13348;50.984;5.822;2023-10-31T08:47:17;10.70;99.90
24448;DHT22;13348;50.984;5.822;2023-10-31T08:49:44;10.80;99.90
24448;DHT22;13348;50.984;5.822;2023-10-31T08:52:11;10.90;99.90
24448;DHT22;13348;50.984;5.822;2023-10-31T08:54:38;10.90;99.90
24448;DHT22;13348;50.984;5.822;2023-10-31T08:57:07;10.80;99.90
24448;DHT22;13348;50.984;5.822;2023-10-31T08:59:34;10.90;99.90
24448;DHT22;13348;50.984;5.822;2023-10-31T09:02:01;11.00;99.90
24448;DHT22;13348;50.984;5.822;2023-10-31T09:04:28;11.20;99.90
24448;DHT22;13348;50.984;5.822;2023-10-31T09:06:55;11.20;99.90
24448;DHT22;13348;50.984;5.822;2023-10-31T09:09:22;11.20;99.90
24448;DHT22;13348;50.984;5.822;2023-10-31T09:11:49;11.30;99.90
24448;DHT22;13348;50.984;5.822;2023-10-31T09:14:17;11.40;99.90
24448;DHT22;13348;50.984;5.822;2023-10-31T09:16:44;11.30;99.90
24448;DHT22;13348;50.984;5.822;2023-10-31T09:19:11;11.30;99.90
24448;DHT22;13348;50.984;5.822;2023-10-31T09:21:38;11.30;99.90
24448;DHT22;13348;50.984;5.822;2023-10-31T09:24:05;11.40;99.90
24448;DHT22;13348;50.984;5.822;2023-10-31T09:26:33;11.40;99.90
24448;DHT22;13348;50.984;5.822;2023-10-31T09:29:00;11.40;99.90
24448;DHT22;13348;50.984;5.822;2023-10-31T09:31:28;11.40;99.90
24448;DHT22;13348;50.984;5.822;2023-10-31T09:33:55;11.50;99.90
24448;DHT22;13348;50.984;5.822;2023-10-31T09:36:22;11.70;99.90
24448;DHT22;13348;50.984;5.822;2023-10-31T09:38:49;11.90;99.90
24448;DHT22;13348;50.984;5.822;2023-10-31T09:41:16;12.00;99.90
24448;DHT22;13348;50.984;5.822;2023-10-31T09:43:43;12.00;99.90
24448;DHT22;13348;50.984;5.822;2023-10-31T09:46:09;12.10;99.90
24448;DHT22;13348;50.984;5.822;2023-10-31T09:48:38;12.10;99.90
24448;DHT22;13348;50.984;5.822;2023-10-31T09:51:05;12.20;99.90
24448;DHT22;13348;50.984;5.822;2023-10-31T09:53:32;12.30;99.90
24448;DHT22;13348;50.984;5.822;2023-10-31T09:56:00;12.40;99.90
24448;DHT22;13348;50.984;5.822;2023-10-31T09:58:27;12.40;99.90
24448;DHT22;13348;50.984;5.822;2023-10-31T10:00:54;12.50;99.90
24448;DHT22;13348;50.984;5.822;2023-10-31T10:03:21;12.40;99.90
24448;DHT22;13348;50.984;5.822;2023-10-31T10:05:50;12.10;99.90
24448;DHT22;13348;50.984;5.822;2023-10-31T10:08:16;11.90;99.90
24448;DHT22;13348;50.984;5.822;2023-10-31T10:10:43;11.90;99.90
24448;DHT22;13348;50.984;5.822;2023-10-31T10:13:11;12.10;99.90
24448;DHT22;13348;50.984;5.822;2023-10-31T10:15:44;12.30;99.90
24448;DHT22;13348;50.984;5.822;2023-10-31T10:18:19;12.60;99.90
24448;DHT22;13348;50.984;5.822;2023-10-31T10:20:55;13.10;99.90
24448;DHT22;13348;50.984;5.822;2023-10-31T10:23:22;12.90;99.90
24448;DHT22;13348;50.984;5.822;2023-10-31T10:25:49;12.70;99.90
24448;DHT22;13348;50.984;5.822;2023-10-31T10:28:16;12.40;99.90
24448;DHT22;13348;50.984;5.822;2023-10-31T10:30:44;12.30;99.90
24448;DHT22;13348;50.984;5.822;2023-10-31T10:33:11;12.30;99.90
24448;DHT22;13348;50.984;5.822;2023-10-31T10:35:38;12.30;99.90
24448;DHT22;13348;50.984;5.822;2023-10-31T10:38:07;12.50;99.90
24448;DHT22;13348;50.984;5.822;2023-10-31T10:40:36;12.50;99.90
24448;DHT22;13348;50.984;5.822;2023-10-31T10:43:03;12.60;99.90
24448;DHT22;13348;50.984;5.822;2023-10-31T10:45:34;12.60;99.90
24448;DHT22;13348;50.984;5.822;2023-10-31T10:48:01;12.50;99.90
24448;DHT22;13348;50.984;5.822;2023-10-31T10:50:29;12.40;99.90
24448;DHT22;13348;50.984;5.822;2023-10-31T10:52:59;12.50;99.90
24448;DHT22;13348;50.984;5.822;2023-10-31T10:55:28;12.50;99.90
24448;DHT22;13348;50.984;5.822;2023-10-31T10:58:00;12.60;99.90
24448;DHT22;13348;50.984;5.822;2023-10-31T11:00:27;12.80;99.90
24448;DHT22;13348;50.984;5.822;2023-10-31T11:02:55;12.90;99.90
24448;DHT22;13348;50.984;5.822;2023-10-31T11:05:23;13.10;99.90
24448;DHT22;13348;50.984;5.822;2023-10-31T11:07:50;13.00;99.90
24448;DHT22;13348;50.984;5.822;2023-10-31T11:10:17;12.90;99.90
24448;DHT22;13348;50.984;5.822;2023-10-31T11:12:46;12.80;99.90
24448;DHT22;13348;50.984;5.822;2023-10-31T11:15:14;13.00;99.90
24448;DHT22;13348;50.984;5.822;2023-10-31T11:17:42;13.30;99.90
24448;DHT22;13348;50.984;5.822;2023-10-31T11:20:10;13.80;99.90
24448;DHT22;13348;50.984;5.822;2023-10-31T11:22:40;13.90;99.90
24448;DHT22;13348;50.984;5.822;2023-10-31T11:25:07;13.60;99.90
24448;DHT22;13348;50.984;5.822;2023-10-31T11:27:34;13.40;99.90
24448;DHT22;13348;50.984;5.822;2023-10-31T11:30:06;13.40;99.90
24448;DHT22;13348;50.984;5.822;2023-10-31T11:32:33;13.20;99.90
24448;DHT22;13348;50.984;5.822;2023-10-31T11:35:01;13.20;99.90
24448;DHT22;13348;50.984;5.822;2023-10-31T11:37:31;13.40;99.90
24448;DHT22;13348;50.984;5.822;2023-10-31T11:40:15;13.30;99.90
24448;DHT22;13348;50.984;5.822;2023-10-31T11:42:43;13.30;99.90
24448;DHT22;13348;50.984;5.822;2023-10-31T11:45:11;13.30;99.90
24448;DHT22;13348;50.984;5.822;2023-10-31T11:47:47;13.40;99.90
24448;DHT22;13348;50.984;5.822;2023-10-31T11:50:14;13.70;99.90
24448;DHT22;13348;50.984;5.822;2023-10-31T11:52:41;13.90;99.90
24448;DHT22;13348;50.984;5.822;2023-10-31T11:55:08;13.90;99.90
24448;DHT22;13348;50.984;5.822;2023-10-31T11:57:36;14.20;99.90
24448;DHT22;13348;50.984;5.822;2023-10-31T12:00:03;14.50;99.90
24448;DHT22;13348;50.984;5.822;2023-10-31T12:02:31;14.50;99.90
24448;DHT22;13348;50.984;5.822;2023-10-31T12:05:08;14.00;99.90
24448;DHT22;13348;50.984;5.822;2023-10-31T12:07:41;13.60;99.90
24448;DHT22;13348;50.984;5.822;2023-10-31T12:10:08;13.30;99.90
24448;DHT22;13348;50.984;5.822;2023-10-31T12:12:35;13.40;99.90
24448;DHT22;13348;50.984;5.822;2023-10-31T12:15:06;13.40;99.90
24448;DHT22;13348;50.984;5.822;2023-10-31T12:17:35;13.70;99.90
24448;DHT22;13348;50.984;5.822;2023-10-31T12:20:05;13.80;99.90
24448;DHT22;13348;50.984;5.822;2023-10-31T12:22:32;13.80;99.90
24448;DHT22;13348;50.984;5.822;2023-10-31T12:25:00;14.00;99.90
24448;DHT22;13348;50.984;5.822;2023-10-31T12:27:42;14.10;99.90
24448;DHT22;13348;50.984;5.822;2023-10-31T12:30:10;13.90;99.90
24448;DHT22;13348;50.984;5.822;2023-10-31T12:32:38;13.50;99.90
24448;DHT22;13348;50.984;5.822;2023-10-31T12:35:06;13.30;99.90
24448;DHT22;13348;50.984;5.822;2023-10-31T12:37:33;13.20;99.90
24448;DHT22;13348;50.984;5.822;2023-10-31T12:40:00;13.20;99.90
24448;DHT22;13348;50.984;5.822;2023-10-31T12:42:30;13.20;99.90
24448;DHT22;13348;50.984;5.822;2023-10-31T12:44:58;13.30;99.90
24448;DHT22;13348;50.984;5.822;2023-10-31T12:47:25;13.70;99.90
24448;DHT22;13348;50.984;5.822;2023-10-31T12:50:09;14.20;99.90
24448;DHT22;13348;50.984;5.822;2023-10-31T12:52:48;14.90;99.90
24448;DHT22;13348;50.984;5.822;2023-10-31T12:55:15;15.20;99.90
24448;DHT22;13348;50.984;5.822;2023-10-31T12:57:42;15.00;99.90
24448;DHT22;13348;50.984;5.822;2023-10-31T13:00:12;15.30;99.90
24448;DHT22;13348;50.984;5.822;2023-10-31T13:02:39;15.70;99.90
24448;DHT22;13348;50.984;5.822;2023-10-31T13:05:11;15.90;99.90
24448;DHT22;13348;50.984;5.822;2023-10-31T13:07:39;16.10;99.90
24448;DHT22;13348;50.984;5.822;2023-10-31T13:10:06;16.00;99.90
24448;DHT22;13348;50.984;5.822;2023-10-31T13:12:34;15.80;99.90
24448;DHT22;13348;50.984;5.822;2023-10-31T13:15:01;16.10;99.90
24448;DHT22;13348;50.984;5.822;2023-10-31T13:17:28;16.20;99.90
24448;DHT22;13348;50.984;5.822;2023-10-31T13:19:56;15.10;99.90
24448;DHT22;13348;50.984;5.822;2023-10-31T13:22:25;15.50;99.90
24448;DHT22;13348;50.984;5.822;2023-10-31T13:24:52;16.00;99.90
24448;DHT22;13348;50.984;5.822;2023-10-31T13:27:19;16.20;99.90
24448;DHT22;13348;50.984;5.822;2023-10-31T13:29:46;16.00;99.90
24448;DHT22;13348;50.984;5.822;2023-10-31T13:32:15;15.00;99.90
24448;DHT22;13348;50.984;5.822;2023-10-31T13:34:43;14.50;99.90
24448;DHT22;13348;50.984;5.822;2023-10-31T13:37:10;14.80;99.90
24448;DHT22;13348;50.984;5.822;2023-10-31T13:39:38;14.60;99.90
24448;DHT22;13348;50.984;5.822;2023-10-31T13:42:05;14.10;99.90
24448;DHT22;13348;50.984;5.822;2023-10-31T13:44:32;14.00;99.90
24448;DHT22;13348;50.984;5.822;2023-10-31T13:46:59;13.80;99.90
24448;DHT22;13348;50.984;5.822;2023-10-31T13:49:26;13.80;99.90
24448;DHT22;13348;50.984;5.822;2023-10-31T13:51:53;13.70;99.90
24448;DHT22;13348;50.984;5.822;2023-10-31T13:54:20;13.60;99.90
24448;DHT22;13348;50.984;5.822;2023-10-31T13:56:48;13.50;99.90
24448;DHT22;13348;50.984;5.822;2023-10-31T13:59:15;13.40;99.90
24448;DHT22;13348;50.984;5.822;2023-10-31T14:01:43;13.40;99.90
24448;DHT22;13348;50.984;5.822;2023-10-31T14:04:11;13.40;99.90
24448;DHT22;13348;50.984;5.822;2023-10-31T14:06:39;13.40;99.90
24448;DHT22;13348;50.984;5.822;2023-10-31T14:09:06;13.40;99.90
24448;DHT22;13348;50.984;5.822;2023-10-31T14:11:33;13.30;99.90
24448;DHT22;13348;50.984;5.822;2023-10-31T14:14:01;13.20;99.90
24448;DHT22;13348;50.984;5.822;2023-10-31T14:16:32;13.00;99.90
24448;DHT22;13348;50.984;5.822;2023-10-31T14:18:59;12.90;99.90
24448;DHT22;13348;50.984;5.822;2023-10-31T14:21:27;12.90;99.90
24448;DHT22;13348;50.984;5.822;2023-10-31T14:23:54;12.80;99.90
24448;DHT22;13348;50.984;5.822;2023-10-31T14:26:22;12.50;99.90
24448;DHT22;13348;50.984;5.822;2023-10-31T14:28:49;12.30;99.90
24448;DHT22;13348;50.984;5.822;2023-10-31T14:31:17;12.30;99.90
24448;DHT22;13348;50.984;5.822;2023-10-31T14:33:44;12.20;99.90
24448;DHT22;13348;50.984;5.822;2023-10-31T14:36:11;12.00;99.90
24448;DHT22;13348;50.984;5.822;2023-10-31T14:38:38;11.90;99.90
24448;DHT22;13348;50.984;5.822;2023-10-31T14:41:06;11.70;99.90
24448;DHT22;13348;50.984;5.822;2023-10-31T14:43:33;11.60;99.90
24448;DHT22;13348;50.984;5.822;2023-10-31T14:46:00;11.50;99.90
24448;DHT22;13348;50.984;5.822;2023-10-31T14:48:29;11.30;99.90
24448;DHT22;13348;50.984;5.822;2023-10-31T14:50:56;11.30;99.90
24448;DHT22;13348;50.984;5.822;2023-10-31T14:53:23;11.20;99.90
24448;DHT22;13348;50.984;5.822;2023-10-31T14:55:50;11.20;99.90
24448;DHT22;13348;50.984;5.822;2023-10-31T14:58:17;11.10;99.90
24448;DHT22;13348;50.984;5.822;2023-10-31T15:00:44;11.10;99.90
24448;DHT22;13348;50.984;5.822;2023-10-31T15:03:11;11.10;99.90
24448;DHT22;13348;50.984;5.822;2023-10-31T15:05:40;11.10;99.90
24448;DHT22;13348;50.984;5.822;2023-10-31T15:08:08;11.10;99.90
24448;DHT22;13348;50.984;5.822;2023-10-31T15:10:35;11.20;99.90
24448;DHT22;13348;50.984;5.822;2023-10-31T15:13:02;11.20;99.90
24448;DHT22;13348;50.984;5.822;2023-10-31T15:15:29;11.20;99.90
24448;DHT22;13348;50.984;5.822;2023-10-31T15:17:56;11.20;99.90
24448;DHT22;13348;50.984;5.822;2023-10-31T15:20:23;11.20;99.90
24448;DHT22;13348;50.984;5.822;2023-10-31T15:22:53;11.20;99.90
24448;DHT22;13348;50.984;5.822;2023-10-31T15:25:20;11.20;99.90
24448;DHT22;13348;50.984;5.822;2023-10-31T15:27:47;11.20;99.90
24448;DHT22;13348;50.984;5.822;2023-10-31T15:30:13;11.20;99.90
24448;DHT22;13348;50.984;5.822;2023-10-31T15:32:40;11.20;99.90
24448;DHT22;13348;50.984;5.822;2023-10-31T15:35:08;11.10;99.90
24448;DHT22;13348;50.984;5.822;2023-10-31T15:37:35;11.20;99.90